sensor_id;sensor_type;location;lat;lon;timestamp;P1;durP1;ratioP1;P2;durP2;ratioP2
64313;SDS011;50650;48.180;11.524;2022-08-11T00:00:20;3.35;;;1.92;;
64313;SDS011;50650;48.180;11.524;2022-08-11T00:02:50;5.55;;;1.95;;
64313;SDS011;50650;48.180;11.524;2022-08-11T00:05:18;3.03;;;1.90;;
64313;SDS011;50650;48.180;11.524;2022-08-11T00:07:46;4.93;;;1.70;;
64313;SDS011;50650;48.180;11.524;2022-08-11T00:10:15;4.20;;;1.90;;
64313;SDS011;50650;48.180;11.524;2022-08-11T00:12:49;4.43;;;1.90;;
64313;SDS011;50650;48.180;11.524;2022-08-11T00:15:16;2.80;;;2.13;;
64313;SDS011;50650;48.180;11.524;2022-08-11T00:17:43;4.43;;;1.67;;
64313;SDS011;50650;48.180;11.524;2022-08-11T00:20:11;3.63;;;1.90;;
64313;SDS011;50650;48.180;11.524;2022-08-11T00:22:39;6.50;;;2.10;;
64313;SDS011;50650;48.180;11.524;2022-08-11T00:25:08;7.38;;;1.60;;
64313;SDS011;50650;48.180;11.524;2022-08-11T00:27:36;9.23;;;1.73;;
64313;SDS011;50650;48.180;11.524;2022-08-11T00:30:05;3.78;;;1.85;;
64313;SDS011;50650;48.180;11.524;2022-08-11T00:32:32;2.47;;;1.60;;
64313;SDS011;50650;48.180;11.524;2022-08-11T00:34:59;2.85;;;1.80;;
64313;SDS011;50650;48.180;11.524;2022-08-11T00:37:26;3.72;;;1.77;;
64313;SDS011;50650;48.180;11.524;2022-08-11T00:39:53;3.92;;;1.73;;
64313;SDS011;50650;48.180;11.524;2022-08-11T00:42:25;2.92;;;1.80;;
64313;SDS011;50650;48.180;11.524;2022-08-11T00:45:08;3.50;;;1.83;;
64313;SDS011;50650;48.180;11.524;2022-08-11T00:47:40;5.00;;;1.77;;
64313;SDS011;50650;48.180;11.524;2022-08-11T00:50:13;2.72;;;1.70;;
64313;SDS011;50650;48.180;11.524;2022-08-11T00:52:47;5.38;;;2.00;;
64313;SDS011;50650;48.180;11.524;2022-08-11T00:55:34;3.88;;;1.70;;
64313;SDS011;50650;48.180;11.524;2022-08-11T01:01:58;4.75;;;2.00;;
64313;SDS011;50650;48.180;11.524;2022-08-11T01:04:44;9.57;;;2.08;;
64313;SDS011;50650;48.180;11.524;2022-08-11T01:07:41;7.07;;;1.77;;
64313;SDS011;50650;48.180;11.524;2022-08-11T01:10:31;2.40;;;1.75;;
64313;SDS011;50650;48.180;11.524;2022-08-11T01:13:28;2.45;;;1.58;;
64313;SDS011;50650;48.180;11.524;2022-08-11T01:16:11;4.75;;;2.00;;
64313;SDS011;50650;48.180;11.524;2022-08-11T01:22:12;2.53;;;1.58;;
64313;SDS011;50650;48.180;11.524;2022-08-11T01:28:19;3.83;;;1.92;;
64313;SDS011;50650;48.180;11.524;2022-08-11T01:37:38;7.78;;;2.15;;
64313;SDS011;50650;48.180;11.524;2022-08-11T01:40:46;3.67;;;1.80;;
64313;SDS011;50650;48.180;11.524;2022-08-11T01:46:43;4.25;;;2.28;;
64313;SDS011;50650;48.180;11.524;2022-08-11T01:49:14;5.80;;;2.08;;
64313;SDS011;50650;48.180;11.524;2022-08-11T01:52:05;4.72;;;2.10;;
64313;SDS011;50650;48.180;11.524;2022-08-11T01:54:36;3.28;;;1.98;;
64313;SDS011;50650;48.180;11.524;2022-08-11T01:57:09;4.05;;;1.90;;
64313;SDS011;50650;48.180;11.524;2022-08-11T01:59:42;5.50;;;2.00;;
64313;SDS011;50650;48.180;11.524;2022-08-11T02:02:21;2.65;;;1.95;;
64313;SDS011;50650;48.180;11.524;2022-08-11T02:05:13;3.78;;;1.73;;
64313;SDS011;50650;48.180;11.524;2022-08-11T02:07:51;5.13;;;2.20;;
64313;SDS011;50650;48.180;11.524;2022-08-11T02:10:22;1.95;;;1.60;;
64313;SDS011;50650;48.180;11.524;2022-08-11T02:13:11;6.15;;;2.22;;
64313;SDS011;50650;48.180;11.524;2022-08-11T02:15:42;6.13;;;2.00;;
64313;SDS011;50650;48.180;11.524;2022-08-11T02:18:12;4.68;;;2.20;;
64313;SDS011;50650;48.180;11.524;2022-08-11T02:20:43;2.58;;;1.95;;
64313;SDS011;50650;48.180;11.524;2022-08-11T02:23:32;7.80;;;2.30;;
64313;SDS011;50650;48.180;11.524;2022-08-11T02:26:15;3.20;;;2.25;;
64313;SDS011;50650;48.180;11.524;2022-08-11T02:28:50;5.05;;;1.63;;
64313;SDS011;50650;48.180;11.524;2022-08-11T02:31:24;6.97;;;1.80;;
64313;SDS011;50650;48.180;11.524;2022-08-11T02:34:13;2.72;;;1.70;;
64313;SDS011;50650;48.180;11.524;2022-08-11T02:36:48;3.63;;;2.00;;
64313;SDS011;50650;48.180;11.524;2022-08-11T02:39:19;2.42;;;1.65;;
64313;SDS011;50650;48.180;11.524;2022-08-11T02:41:49;5.85;;;2.10;;
64313;SDS011;50650;48.180;11.524;2022-08-11T02:44:40;4.50;;;1.88;;
64313;SDS011;50650;48.180;11.524;2022-08-11T02:47:14;5.57;;;2.17;;
64313;SDS011;50650;48.180;11.524;2022-08-11T02:49:49;3.20;;;1.90;;
64313;SDS011;50650;48.180;11.524;2022-08-11T02:52:20;6.07;;;2.17;;
64313;SDS011;50650;48.180;11.524;2022-08-11T02:54:55;7.15;;;2.38;;
64313;SDS011;50650;48.180;11.524;2022-08-11T02:57:32;4.75;;;2.40;;
64313;SDS011;50650;48.180;11.524;2022-08-11T03:00:03;4.75;;;2.20;;
64313;SDS011;50650;48.180;11.524;2022-08-11T03:02:44;4.03;;;2.17;;
64313;SDS011;50650;48.180;11.524;2022-08-11T03:05:17;2.65;;;2.00;;
64313;SDS011;50650;48.180;11.524;2022-08-11T03:07:50;6.95;;;2.13;;
64313;SDS011;50650;48.180;11.524;2022-08-11T03:10:31;2.53;;;2.20;;
64313;SDS011;50650;48.180;11.524;2022-08-11T03:13:03;8.20;;;2.50;;
64313;SDS011;50650;48.180;11.524;2022-08-11T03:15:54;5.05;;;2.20;;
64313;SDS011;50650;48.180;11.524;2022-08-11T03:18:53;3.38;;;2.20;;
64313;SDS011;50650;48.180;11.524;2022-08-11T03:21:22;5.70;;;2.47;;
64313;SDS011;50650;48.180;11.524;2022-08-11T03:23:52;6.45;;;1.92;;
64313;SDS011;50650;48.180;11.524;2022-08-11T03:26:25;3.70;;;2.22;;
64313;SDS011;50650;48.180;11.524;2022-08-11T03:29:00;5.07;;;2.13;;
64313;SDS011;50650;48.180;11.524;2022-08-11T03:31:31;3.10;;;2.17;;
64313;SDS011;50650;48.180;11.524;2022-08-11T03:34:02;5.40;;;2.20;;
64313;SDS011;50650;48.180;11.524;2022-08-11T03:36:40;3.97;;;2.33;;
64313;SDS011;50650;48.180;11.524;2022-08-11T03:39:19;3.88;;;2.25;;
64313;SDS011;50650;48.180;11.524;2022-08-11T03:41:51;5.57;;;2.60;;
64313;SDS011;50650;48.180;11.524;2022-08-11T03:44:27;3.65;;;2.47;;
64313;SDS011;50650;48.180;11.524;2022-08-11T03:47:14;4.47;;;2.22;;
64313;SDS011;50650;48.180;11.524;2022-08-11T03:49:56;3.50;;;2.47;;
64313;SDS011;50650;48.180;11.524;2022-08-11T03:52:30;7.35;;;2.10;;
64313;SDS011;50650;48.180;11.524;2022-08-11T03:55:07;5.38;;;2.50;;
64313;SDS011;50650;48.180;11.524;2022-08-11T04:00:46;4.53;;;2.33;;
64313;SDS011;50650;48.180;11.524;2022-08-11T04:03:24;3.42;;;2.28;;
64313;SDS011;50650;48.180;11.524;2022-08-11T04:18:52;5.60;;;2.63;;
64313;SDS011;50650;48.180;11.524;2022-08-11T04:21:56;9.18;;;2.38;;
64313;SDS011;50650;48.180;11.524;2022-08-11T04:24:53;3.72;;;2.30;;
64313;SDS011;50650;48.180;11.524;2022-08-11T04:27:43;9.82;;;2.90;;
64313;SDS011;50650;48.180;11.524;2022-08-11T04:30:21;5.13;;;2.10;;
64313;SDS011;50650;48.180;11.524;2022-08-11T04:33:01;5.88;;;2.70;;
64313;SDS011;50650;48.180;11.524;2022-08-11T04:35:41;4.03;;;2.38;;
64313;SDS011;50650;48.180;11.524;2022-08-11T04:38:30;5.13;;;2.42;;
64313;SDS011;50650;48.180;11.524;2022-08-11T04:41:19;9.32;;;2.90;;
64313;SDS011;50650;48.180;11.524;2022-08-11T04:44:31;3.45;;;2.40;;
64313;SDS011;50650;48.180;11.524;2022-08-11T04:47:30;4.57;;;2.60;;
64313;SDS011;50650;48.180;11.524;2022-08-11T04:50:29;3.13;;;2.30;;
64313;SDS011;50650;48.180;11.524;2022-08-11T04:53:25;6.63;;;2.58;;
64313;SDS011;50650;48.180;11.524;2022-08-11T04:56:13;6.80;;;2.42;;
64313;SDS011;50650;48.180;11.524;2022-08-11T04:59:07;4.70;;;2.65;;
64313;SDS011;50650;48.180;11.524;2022-08-11T05:02:34;5.47;;;2.83;;
64313;SDS011;50650;48.180;11.524;2022-08-11T05:05:18;6.13;;;2.47;;
64313;SDS011;50650;48.180;11.524;2022-08-11T05:11:11;12.45;;;2.95;;
64313;SDS011;50650;48.180;11.524;2022-08-11T05:13:47;4.72;;;2.63;;
64313;SDS011;50650;48.180;11.524;2022-08-11T05:16:34;4.38;;;2.50;;
64313;SDS011;50650;48.180;11.524;2022-08-11T05:19:25;9.68;;;3.17;;
64313;SDS011;50650;48.180;11.524;2022-08-11T05:22:10;9.10;;;2.90;;
64313;SDS011;50650;48.180;11.524;2022-08-11T05:24:56;6.55;;;2.90;;
64313;SDS011;50650;48.180;11.524;2022-08-11T05:27:49;7.35;;;2.50;;
64313;SDS011;50650;48.180;11.524;2022-08-11T05:30:36;4.78;;;2.65;;
64313;SDS011;50650;48.180;11.524;2022-08-11T05:33:23;5.03;;;2.70;;
64313;SDS011;50650;48.180;11.524;2022-08-11T05:36:16;6.60;;;2.65;;
64313;SDS011;50650;48.180;11.524;2022-08-11T05:38:48;4.45;;;3.13;;
64313;SDS011;50650;48.180;11.524;2022-08-11T05:41:35;7.70;;;2.80;;
64313;SDS011;50650;48.180;11.524;2022-08-11T05:44:19;6.03;;;2.83;;
64313;SDS011;50650;48.180;11.524;2022-08-11T05:47:03;3.35;;;2.65;;
64313;SDS011;50650;48.180;11.524;2022-08-11T05:49:48;5.43;;;2.60;;
64313;SDS011;50650;48.180;11.524;2022-08-11T05:52:34;6.13;;;3.05;;
64313;SDS011;50650;48.180;11.524;2022-08-11T05:55:18;7.45;;;3.03;;
64313;SDS011;50650;48.180;11.524;2022-08-11T05:58:04;7.68;;;2.63;;
64313;SDS011;50650;48.180;11.524;2022-08-11T06:00:37;5.38;;;2.88;;
64313;SDS011;50650;48.180;11.524;2022-08-11T06:03:06;4.47;;;2.75;;
64313;SDS011;50650;48.180;11.524;2022-08-11T06:05:35;5.28;;;2.60;;
64313;SDS011;50650;48.180;11.524;2022-08-11T06:08:04;7.05;;;2.72;;
64313;SDS011;50650;48.180;11.524;2022-08-11T06:10:31;5.32;;;2.50;;
64313;SDS011;50650;48.180;11.524;2022-08-11T06:12:59;3.80;;;2.25;;
64313;SDS011;50650;48.180;11.524;2022-08-11T06:15:26;7.53;;;2.67;;
64313;SDS011;50650;48.180;11.524;2022-08-11T06:17:53;5.78;;;2.10;;
64313;SDS011;50650;48.180;11.524;2022-08-11T06:20:20;8.50;;;2.78;;
64313;SDS011;50650;48.180;11.524;2022-08-11T06:22:54;5.20;;;2.33;;
64313;SDS011;50650;48.180;11.524;2022-08-11T06:25:23;10.20;;;2.72;;
64313;SDS011;50650;48.180;11.524;2022-08-11T06:27:55;6.65;;;2.50;;
64313;SDS011;50650;48.180;11.524;2022-08-11T06:30:31;9.15;;;2.30;;
64313;SDS011;50650;48.180;11.524;2022-08-11T06:32:59;9.10;;;2.47;;
64313;SDS011;50650;48.180;11.524;2022-08-11T06:35:28;6.90;;;2.40;;
64313;SDS011;50650;48.180;11.524;2022-08-11T06:38:04;4.90;;;2.67;;
64313;SDS011;50650;48.180;11.524;2022-08-11T06:40:36;5.55;;;2.70;;
64313;SDS011;50650;48.180;11.524;2022-08-11T06:43:09;3.75;;;2.30;;
64313;SDS011;50650;48.180;11.524;2022-08-11T06:45:40;7.00;;;3.17;;
64313;SDS011;50650;48.180;11.524;2022-08-11T06:48:14;7.68;;;2.97;;
64313;SDS011;50650;48.180;11.524;2022-08-11T06:50:45;4.20;;;2.60;;
64313;SDS011;50650;48.180;11.524;2022-08-11T06:53:31;5.13;;;2.40;;
64313;SDS011;50650;48.180;11.524;2022-08-11T06:56:01;10.80;;;3.33;;
64313;SDS011;50650;48.180;11.524;2022-08-11T06:58:46;7.80;;;2.85;;
64313;SDS011;50650;48.180;11.524;2022-08-11T07:01:40;6.38;;;2.40;;
64313;SDS011;50650;48.180;11.524;2022-08-11T07:04:12;8.63;;;2.50;;
64313;SDS011;50650;48.180;11.524;2022-08-11T07:10:12;3.88;;;2.50;;
64313;SDS011;50650;48.180;11.524;2022-08-11T07:13:04;6.82;;;2.63;;
64313;SDS011;50650;48.180;11.524;2022-08-11T07:15:49;5.35;;;2.47;;
64313;SDS011;50650;48.180;11.524;2022-08-11T07:18:19;5.28;;;2.55;;
64313;SDS011;50650;48.180;11.524;2022-08-11T07:21:08;3.58;;;2.28;;
64313;SDS011;50650;48.180;11.524;2022-08-11T07:23:54;4.30;;;2.15;;
64313;SDS011;50650;48.180;11.524;2022-08-11T07:26:39;4.53;;;2.60;;
64313;SDS011;50650;48.180;11.524;2022-08-11T07:29:25;5.15;;;2.63;;
64313;SDS011;50650;48.180;11.524;2022-08-11T07:31:52;4.05;;;2.25;;
64313;SDS011;50650;48.180;11.524;2022-08-11T07:34:20;4.03;;;1.90;;
64313;SDS011;50650;48.180;11.524;2022-08-11T07:36:49;4.03;;;2.47;;
64313;SDS011;50650;48.180;11.524;2022-08-11T07:39:19;6.97;;;2.17;;
64313;SDS011;50650;48.180;11.524;2022-08-11T07:41:47;5.55;;;2.65;;
64313;SDS011;50650;48.180;11.524;2022-08-11T07:44:14;8.43;;;2.67;;
64313;SDS011;50650;48.180;11.524;2022-08-11T07:46:43;5.80;;;2.35;;
64313;SDS011;50650;48.180;11.524;2022-08-11T07:49:30;4.68;;;2.22;;
64313;SDS011;50650;48.180;11.524;2022-08-11T07:52:16;4.05;;;1.90;;
64313;SDS011;50650;48.180;11.524;2022-08-11T07:54:53;4.10;;;2.20;;
64313;SDS011;50650;48.180;11.524;2022-08-11T07:57:20;6.18;;;2.42;;
64313;SDS011;50650;48.180;11.524;2022-08-11T08:00:05;4.40;;;2.30;;
64313;SDS011;50650;48.180;11.524;2022-08-11T08:02:51;3.42;;;2.22;;
64313;SDS011;50650;48.180;11.524;2022-08-11T08:05:36;3.88;;;1.98;;
64313;SDS011;50650;48.180;11.524;2022-08-11T08:08:20;5.78;;;2.38;;
64313;SDS011;50650;48.180;11.524;2022-08-11T08:11:05;6.18;;;2.15;;
64313;SDS011;50650;48.180;11.524;2022-08-11T08:13:51;3.75;;;2.00;;
64313;SDS011;50650;48.180;11.524;2022-08-11T08:16:36;2.78;;;2.05;;
64313;SDS011;50650;48.180;11.524;2022-08-11T08:21:48;4.20;;;2.17;;
64313;SDS011;50650;48.180;11.524;2022-08-11T08:24:14;6.43;;;1.92;;
64313;SDS011;50650;48.180;11.524;2022-08-11T08:26:41;5.15;;;2.45;;
64313;SDS011;50650;48.180;11.524;2022-08-11T08:29:24;2.83;;;2.50;;
64313;SDS011;50650;48.180;11.524;2022-08-11T08:32:09;4.45;;;2.22;;
64313;SDS011;50650;48.180;11.524;2022-08-11T08:34:37;5.38;;;2.08;;
64313;SDS011;50650;48.180;11.524;2022-08-11T08:37:05;8.18;;;2.22;;
64313;SDS011;50650;48.180;11.524;2022-08-11T08:39:32;3.15;;;1.90;;
64313;SDS011;50650;48.180;11.524;2022-08-11T08:42:01;5.65;;;2.00;;
64313;SDS011;50650;48.180;11.524;2022-08-11T08:44:30;3.42;;;1.90;;
64313;SDS011;50650;48.180;11.524;2022-08-11T08:46:59;3.40;;;1.67;;
64313;SDS011;50650;48.180;11.524;2022-08-11T08:49:30;5.03;;;2.10;;
64313;SDS011;50650;48.180;11.524;2022-08-11T08:52:00;3.55;;;2.10;;
64313;SDS011;50650;48.180;11.524;2022-08-11T08:54:29;8.43;;;2.00;;
64313;SDS011;50650;48.180;11.524;2022-08-11T08:56:59;3.85;;;2.13;;
64313;SDS011;50650;48.180;11.524;2022-08-11T08:59:29;3.03;;;2.13;;
64313;SDS011;50650;48.180;11.524;2022-08-11T09:01:57;2.97;;;1.90;;
64313;SDS011;50650;48.180;11.524;2022-08-11T09:04:24;4.20;;;2.00;;
64313;SDS011;50650;48.180;11.524;2022-08-11T09:06:52;4.00;;;2.25;;
64313;SDS011;50650;48.180;11.524;2022-08-11T09:09:20;4.47;;;2.08;;
64313;SDS011;50650;48.180;11.524;2022-08-11T09:11:47;3.70;;;2.20;;
64313;SDS011;50650;48.180;11.524;2022-08-11T09:14:18;4.50;;;2.40;;
64313;SDS011;50650;48.180;11.524;2022-08-11T09:16:46;6.03;;;2.17;;
64313;SDS011;50650;48.180;11.524;2022-08-11T09:19:14;4.95;;;1.98;;
64313;SDS011;50650;48.180;11.524;2022-08-11T09:21:42;6.00;;;2.33;;
64313;SDS011;50650;48.180;11.524;2022-08-11T09:24:09;3.60;;;2.00;;
64313;SDS011;50650;48.180;11.524;2022-08-11T09:29:28;3.58;;;1.90;;
64313;SDS011;50650;48.180;11.524;2022-08-11T09:31:56;4.65;;;1.92;;
64313;SDS011;50650;48.180;11.524;2022-08-11T09:34:23;2.42;;;1.80;;
64313;SDS011;50650;48.180;11.524;2022-08-11T09:36:50;4.82;;;1.90;;
64313;SDS011;50650;48.180;11.524;2022-08-11T09:39:35;12.50;;;2.13;;
64313;SDS011;50650;48.180;11.524;2022-08-11T09:42:22;3.28;;;2.00;;
64313;SDS011;50650;48.180;11.524;2022-08-11T09:45:09;5.82;;;1.90;;
64313;SDS011;50650;48.180;11.524;2022-08-11T09:47:35;5.28;;;2.30;;
64313;SDS011;50650;48.180;11.524;2022-08-11T09:50:03;5.75;;;2.03;;
64313;SDS011;50650;48.180;11.524;2022-08-11T09:52:31;4.43;;;1.60;;
64313;SDS011;50650;48.180;11.524;2022-08-11T09:55:01;8.15;;;2.17;;
64313;SDS011;50650;48.180;11.524;2022-08-11T09:57:37;5.60;;;1.83;;
64313;SDS011;50650;48.180;11.524;2022-08-11T10:00:26;4.60;;;1.58;;
64313;SDS011;50650;48.180;11.524;2022-08-11T10:02:53;2.63;;;1.70;;
64313;SDS011;50650;48.180;11.524;2022-08-11T10:05:21;5.10;;;2.17;;
64313;SDS011;50650;48.180;11.524;2022-08-11T10:08:06;8.23;;;1.60;;
64313;SDS011;50650;48.180;11.524;2022-08-11T10:10:35;3.42;;;1.83;;
64313;SDS011;50650;48.180;11.524;2022-08-11T10:13:05;2.80;;;1.63;;
64313;SDS011;50650;48.180;11.524;2022-08-11T10:15:33;3.83;;;1.60;;
64313;SDS011;50650;48.180;11.524;2022-08-11T10:18:05;3.65;;;1.40;;
64313;SDS011;50650;48.180;11.524;2022-08-11T10:20:51;4.65;;;1.58;;
64313;SDS011;50650;48.180;11.524;2022-08-11T10:23:26;3.63;;;1.98;;
64313;SDS011;50650;48.180;11.524;2022-08-11T10:26:11;3.20;;;1.50;;
64313;SDS011;50650;48.180;11.524;2022-08-11T10:28:57;4.65;;;1.73;;
64313;SDS011;50650;48.180;11.524;2022-08-11T10:31:26;6.28;;;1.77;;
64313;SDS011;50650;48.180;11.524;2022-08-11T10:34:11;7.00;;;1.65;;
64313;SDS011;50650;48.180;11.524;2022-08-11T10:36:42;1.77;;;1.30;;
64313;SDS011;50650;48.180;11.524;2022-08-11T10:41:41;7.97;;;1.70;;
64313;SDS011;50650;48.180;11.524;2022-08-11T10:44:37;2.85;;;1.73;;
64313;SDS011;50650;48.180;11.524;2022-08-11T10:47:09;4.10;;;1.63;;
64313;SDS011;50650;48.180;11.524;2022-08-11T10:49:54;3.63;;;1.58;;
64313;SDS011;50650;48.180;11.524;2022-08-11T10:52:39;3.83;;;1.40;;
64313;SDS011;50650;48.180;11.524;2022-08-11T10:55:24;12.50;;;1.65;;
64313;SDS011;50650;48.180;11.524;2022-08-11T10:58:09;6.43;;;1.52;;
64313;SDS011;50650;48.180;11.524;2022-08-11T11:00:55;4.20;;;1.75;;
64313;SDS011;50650;48.180;11.524;2022-08-11T11:03:23;6.68;;;1.40;;
64313;SDS011;50650;48.180;11.524;2022-08-11T11:05:50;8.57;;;1.52;;
64313;SDS011;50650;48.180;11.524;2022-08-11T11:08:19;4.60;;;1.80;;
64313;SDS011;50650;48.180;11.524;2022-08-11T11:11:06;5.43;;;1.80;;
64313;SDS011;50650;48.180;11.524;2022-08-11T11:13:33;2.65;;;1.40;;
64313;SDS011;50650;48.180;11.524;2022-08-11T11:16:20;5.20;;;1.55;;
64313;SDS011;50650;48.180;11.524;2022-08-11T11:19:04;5.85;;;1.67;;
64313;SDS011;50650;48.180;11.524;2022-08-11T11:21:33;1.90;;;1.55;;
64313;SDS011;50650;48.180;11.524;2022-08-11T11:24:02;2.92;;;1.88;;
64313;SDS011;50650;48.180;11.524;2022-08-11T11:26:36;3.20;;;1.50;;
64313;SDS011;50650;48.180;11.524;2022-08-11T11:29:10;4.22;;;1.85;;
64313;SDS011;50650;48.180;11.524;2022-08-11T11:32:03;5.45;;;1.40;;
64313;SDS011;50650;48.180;11.524;2022-08-11T11:34:39;3.05;;;1.52;;
64313;SDS011;50650;48.180;11.524;2022-08-11T11:37:13;4.63;;;1.83;;
64313;SDS011;50650;48.180;11.524;2022-08-11T11:39:41;4.80;;;1.70;;
64313;SDS011;50650;48.180;11.524;2022-08-11T11:42:09;5.53;;;1.77;;
64313;SDS011;50650;48.180;11.524;2022-08-11T11:44:37;4.55;;;1.75;;
64313;SDS011;50650;48.180;11.524;2022-08-11T11:47:06;3.20;;;1.50;;
64313;SDS011;50650;48.180;11.524;2022-08-11T11:49:34;8.07;;;1.52;;
64313;SDS011;50650;48.180;11.524;2022-08-11T11:52:03;3.28;;;1.55;;
64313;SDS011;50650;48.180;11.524;2022-08-11T11:54:34;3.30;;;1.50;;
64313;SDS011;50650;48.180;11.524;2022-08-11T11:57:02;7.60;;;1.63;;
64313;SDS011;50650;48.180;11.524;2022-08-11T11:59:43;6.32;;;1.65;;
64313;SDS011;50650;48.180;11.524;2022-08-11T12:02:29;4.88;;;1.85;;
64313;SDS011;50650;48.180;11.524;2022-08-11T12:04:56;3.88;;;1.67;;
64313;SDS011;50650;48.180;11.524;2022-08-11T12:07:26;3.60;;;1.50;;
64313;SDS011;50650;48.180;11.524;2022-08-11T12:10:11;3.00;;;1.70;;
64313;SDS011;50650;48.180;11.524;2022-08-11T12:12:38;2.63;;;1.30;;
64313;SDS011;50650;48.180;11.524;2022-08-11T12:17:50;3.95;;;1.48;;
64313;SDS011;50650;48.180;11.524;2022-08-11T12:20:17;2.35;;;1.30;;
64313;SDS011;50650;48.180;11.524;2022-08-11T12:22:46;6.95;;;1.75;;
64313;SDS011;50650;48.180;11.524;2022-08-11T12:25:31;5.13;;;1.70;;
64313;SDS011;50650;48.180;11.524;2022-08-11T12:28:16;8.13;;;1.83;;
64313;SDS011;50650;48.180;11.524;2022-08-11T12:30:43;3.22;;;1.77;;
64313;SDS011;50650;48.180;11.524;2022-08-11T12:33:13;5.55;;;1.75;;
64313;SDS011;50650;48.180;11.524;2022-08-11T12:35:45;3.70;;;1.40;;
64313;SDS011;50650;48.180;11.524;2022-08-11T12:38:13;2.28;;;1.45;;
64313;SDS011;50650;48.180;11.524;2022-08-11T12:40:42;2.30;;;1.60;;
64313;SDS011;50650;48.180;11.524;2022-08-11T12:43:27;7.65;;;1.98;;
64313;SDS011;50650;48.180;11.524;2022-08-11T12:46:15;3.45;;;1.50;;
64313;SDS011;50650;48.180;11.524;2022-08-11T12:48:46;4.20;;;1.48;;
64313;SDS011;50650;48.180;11.524;2022-08-11T12:51:33;2.75;;;1.30;;
64313;SDS011;50650;48.180;11.524;2022-08-11T12:54:21;5.18;;;1.92;;
64313;SDS011;50650;48.180;11.524;2022-08-11T12:56:54;3.25;;;1.30;;
64313;SDS011;50650;48.180;11.524;2022-08-11T12:59:42;2.17;;;1.40;;
64313;SDS011;50650;48.180;11.524;2022-08-11T13:02:27;4.28;;;1.60;;
64313;SDS011;50650;48.180;11.524;2022-08-11T13:05:13;4.82;;;1.50;;
64313;SDS011;50650;48.180;11.524;2022-08-11T13:07:41;8.23;;;1.75;;
64313;SDS011;50650;48.180;11.524;2022-08-11T13:10:10;1.73;;;1.23;;
64313;SDS011;50650;48.180;11.524;2022-08-11T13:12:39;5.85;;;1.60;;
64313;SDS011;50650;48.180;11.524;2022-08-11T13:15:17;2.30;;;1.52;;
64313;SDS011;50650;48.180;11.524;2022-08-11T13:17:46;1.67;;;1.38;;
64313;SDS011;50650;48.180;11.524;2022-08-11T13:20:17;2.67;;;1.40;;
64313;SDS011;50650;48.180;11.524;2022-08-11T13:22:47;6.55;;;1.27;;
64313;SDS011;50650;48.180;11.524;2022-08-11T13:25:16;2.72;;;1.45;;
64313;SDS011;50650;48.180;11.524;2022-08-11T13:27:47;3.35;;;1.50;;
64313;SDS011;50650;48.180;11.524;2022-08-11T13:30:16;3.10;;;1.42;;
64313;SDS011;50650;48.180;11.524;2022-08-11T13:33:01;5.65;;;1.67;;
64313;SDS011;50650;48.180;11.524;2022-08-11T13:35:31;3.53;;;1.35;;
64313;SDS011;50650;48.180;11.524;2022-08-11T13:38:00;2.40;;;1.58;;
64313;SDS011;50650;48.180;11.524;2022-08-11T13:40:27;2.33;;;1.50;;
64313;SDS011;50650;48.180;11.524;2022-08-11T13:42:55;1.70;;;1.42;;
64313;SDS011;50650;48.180;11.524;2022-08-11T13:45:26;1.75;;;1.30;;
64313;SDS011;50650;48.180;11.524;2022-08-11T13:47:55;2.35;;;1.40;;
64313;SDS011;50650;48.180;11.524;2022-08-11T13:50:25;4.38;;;1.40;;
64313;SDS011;50650;48.180;11.524;2022-08-11T13:53:18;5.82;;;1.58;;
64313;SDS011;50650;48.180;11.524;2022-08-11T13:55:50;5.65;;;1.45;;
64313;SDS011;50650;48.180;11.524;2022-08-11T13:58:25;4.13;;;1.45;;
64313;SDS011;50650;48.180;11.524;2022-08-11T14:00:53;4.03;;;1.40;;
64313;SDS011;50650;48.180;11.524;2022-08-11T14:03:22;5.47;;;1.30;;
64313;SDS011;50650;48.180;11.524;2022-08-11T14:05:51;4.15;;;1.90;;
64313;SDS011;50650;48.180;11.524;2022-08-11T14:08:24;3.63;;;1.40;;
64313;SDS011;50650;48.180;11.524;2022-08-11T14:10:57;5.03;;;1.48;;
64313;SDS011;50650;48.180;11.524;2022-08-11T14:13:56;2.65;;;1.50;;
64313;SDS011;50650;48.180;11.524;2022-08-11T14:16:25;4.88;;;1.50;;
64313;SDS011;50650;48.180;11.524;2022-08-11T14:18:56;3.95;;;1.40;;
64313;SDS011;50650;48.180;11.524;2022-08-11T14:21:26;3.75;;;1.33;;
64313;SDS011;50650;48.180;11.524;2022-08-11T14:24:13;2.08;;;1.30;;
64313;SDS011;50650;48.180;11.524;2022-08-11T14:26:42;2.03;;;1.30;;
64313;SDS011;50650;48.180;11.524;2022-08-11T14:29:11;3.30;;;1.35;;
64313;SDS011;50650;48.180;11.524;2022-08-11T14:31:43;4.03;;;1.40;;
64313;SDS011;50650;48.180;11.524;2022-08-11T14:34:12;1.58;;;1.30;;
64313;SDS011;50650;48.180;11.524;2022-08-11T14:36:50;2.85;;;1.23;;
64313;SDS011;50650;48.180;11.524;2022-08-11T14:39:20;3.33;;;1.30;;
64313;SDS011;50650;48.180;11.524;2022-08-11T14:41:51;4.40;;;1.58;;
64313;SDS011;50650;48.180;11.524;2022-08-11T14:44:37;2.35;;;1.55;;
64313;SDS011;50650;48.180;11.524;2022-08-11T14:47:24;3.50;;;1.52;;
64313;SDS011;50650;48.180;11.524;2022-08-11T14:49:54;1.85;;;1.33;;
64313;SDS011;50650;48.180;11.524;2022-08-11T14:52:26;3.58;;;1.40;;
64313;SDS011;50650;48.180;11.524;2022-08-11T14:55:03;2.80;;;1.33;;
64313;SDS011;50650;48.180;11.524;2022-08-11T14:57:49;9.55;;;1.70;;
64313;SDS011;50650;48.180;11.524;2022-08-11T15:00:17;6.43;;;1.50;;
64313;SDS011;50650;48.180;11.524;2022-08-11T15:02:45;3.90;;;1.20;;
64313;SDS011;50650;48.180;11.524;2022-08-11T15:05:34;2.67;;;1.08;;
64313;SDS011;50650;48.180;11.524;2022-08-11T15:08:03;1.83;;;1.50;;
64313;SDS011;50650;48.180;11.524;2022-08-11T15:10:32;4.88;;;1.38;;
64313;SDS011;50650;48.180;11.524;2022-08-11T15:13:00;6.32;;;1.73;;
64313;SDS011;50650;48.180;11.524;2022-08-11T15:15:30;7.22;;;1.25;;
64313;SDS011;50650;48.180;11.524;2022-08-11T15:18:16;3.65;;;1.30;;
64313;SDS011;50650;48.180;11.524;2022-08-11T15:20:50;4.78;;;1.40;;
64313;SDS011;50650;48.180;11.524;2022-08-11T15:23:36;4.30;;;1.40;;
64313;SDS011;50650;48.180;11.524;2022-08-11T15:26:24;8.57;;;1.70;;
64313;SDS011;50650;48.180;11.524;2022-08-11T15:29:14;5.63;;;1.55;;
64313;SDS011;50650;48.180;11.524;2022-08-11T15:32:01;3.58;;;1.20;;
64313;SDS011;50650;48.180;11.524;2022-08-11T15:34:52;9.02;;;1.48;;
64313;SDS011;50650;48.180;11.524;2022-08-11T15:37:39;3.70;;;1.17;;
64313;SDS011;50650;48.180;11.524;2022-08-11T15:40:08;2.45;;;1.75;;
64313;SDS011;50650;48.180;11.524;2022-08-11T15:43:01;2.67;;;1.15;;
64313;SDS011;50650;48.180;11.524;2022-08-11T15:45:49;3.22;;;1.30;;
64313;SDS011;50650;48.180;11.524;2022-08-11T15:48:26;4.95;;;1.27;;
64313;SDS011;50650;48.180;11.524;2022-08-11T15:51:01;2.42;;;1.40;;
64313;SDS011;50650;48.180;11.524;2022-08-11T15:53:34;3.95;;;1.23;;
64313;SDS011;50650;48.180;11.524;2022-08-11T15:56:06;3.15;;;1.30;;
64313;SDS011;50650;48.180;11.524;2022-08-11T15:58:35;6.68;;;1.52;;
64313;SDS011;50650;48.180;11.524;2022-08-11T16:01:23;2.97;;;1.30;;
64313;SDS011;50650;48.180;11.524;2022-08-11T16:04:09;5.15;;;1.45;;
64313;SDS011;50650;48.180;11.524;2022-08-11T16:06:41;1.83;;;1.30;;
64313;SDS011;50650;48.180;11.524;2022-08-11T16:09:11;2.28;;;1.20;;
64313;SDS011;50650;48.180;11.524;2022-08-11T16:11:40;3.17;;;1.58;;
64313;SDS011;50650;48.180;11.524;2022-08-11T16:14:10;5.78;;;1.40;;
64313;SDS011;50650;48.180;11.524;2022-08-11T16:16:55;6.28;;;1.55;;
64313;SDS011;50650;48.180;11.524;2022-08-11T16:19:26;1.30;;;1.10;;
64313;SDS011;50650;48.180;11.524;2022-08-11T16:21:59;2.67;;;1.40;;